Time;durP1;ratioP1;P1;durP2;ratioP2;P2;SDS_P1;SDS_P2;PMS_P1;PMS_P2;Temp;Humidity;BMP_temperature;BMP_pressure;BME280_temperature;BME280_humidity;BME280_pressure;Samples;Min_cycle;Max_cycle;Signal;HPM_P1;HPM_P2
2024/01/09 00:02:03;;;;;;;10.73;4.32;;;;;;;0.94;53.43;103539.91;4993568;28;20041;-47
2024/01/09 00:04:28;;;;;;;10.60;4.72;;;;;;;0.63;54.98;103541.25;4993379;28;20026;-46
2024/01/09 00:06:54;;;;;;;10.38;4.70;;;;;;;0.91;54.93;103544.78;4993451;28;20035;-45
2024/01/09 00:09:19;;;;;;;9.95;4.60;;;;;;;0.39;55.35;103530.44;4993604;28;20532;-50
2024/01/09 00:11:44;;;;;;;10.07;4.35;;;;;;;1.00;54.94;103543.97;4995144;28;20173;-45
2024/01/09 00:14:11;;;;;;;10.70;4.72;;;;;;;0.45;55.81;103539.47;4995719;28;20401;-45
2024/01/09 00:16:37;;;;;;;9.32;4.47;;;;;;;0.52;56.15;103539.31;4995955;28;20030;-46
2024/01/09 00:19:02;;;;;;;10.88;4.60;;;;;;;0.53;55.75;103536.91;4992634;28;20093;-46
2024/01/09 00:21:28;;;;;;;13.50;4.82;;;;;;;0.81;54.75;103536.19;4992840;28;20038;-47
2024/01/09 00:23:53;;;;;;;10.30;4.43;;;;;;;0.49;55.74;103542.47;4992555;28;20089;-46
2024/01/09 00:26:21;;;;;;;10.48;4.72;;;;;;;0.59;55.70;103544.28;4991054;28;20093;-48
2024/01/09 00:28:46;;;;;;;10.00;4.70;;;;;;;0.58;55.89;103539.91;4992411;28;20033;-42
2024/01/09 00:31:12;;;;;;;10.88;4.63;;;;;;;0.79;55.24;103537.69;4990655;28;20035;-44
2024/01/09 00:33:38;;;;;;;10.25;4.35;;;;;;;0.58;55.58;103529.63;4990454;28;20027;-49
2024/01/09 00:36:03;;;;;;;13.65;4.28;;;;;;;0.65;55.32;103532.03;4991352;28;20536;-45
2024/01/09 00:38:29;;;;;;;10.27;4.80;;;;;;;0.46;55.37;103534.50;4992105;28;20046;-44
2024/01/09 00:40:54;;;;;;;9.50;4.63;;;;;;;0.74;54.92;103533.81;4992231;28;20037;-47
2024/01/09 00:43:20;;;;;;;10.73;4.57;;;;;;;0.42;55.84;103523.81;4991166;28;20125;-45
2024/01/09 00:45:45;;;;;;;8.68;4.18;;;;;;;0.48;56.02;103532.09;4992392;28;20095;-45
2024/01/09 00:48:11;;;;;;;10.48;4.47;;;;;;;0.43;56.63;103526.50;4991351;28;20039;-45
2024/01/09 00:50:36;;;;;;;10.88;4.75;;;;;;;0.46;56.55;103526.81;4990959;28;20058;-44
2024/01/09 00:53:02;;;;;;;7.95;4.28;;;;;;;0.48;56.06;103521.81;4990735;28;20038;-45
2024/01/09 00:55:27;;;;;;;9.15;4.32;;;;;;;0.33;56.60;103537.53;4992212;28;20188;-44
2024/01/09 00:57:53;;;;;;;9.57;4.57;;;;;;;0.47;56.98;103528.63;4992894;28;20125;-47
2024/01/09 01:00:18;;;;;;;9.60;4.70;;;;;;;0.33;56.04;103529.84;4988422;28;20064;-45
2024/01/09 01:02:44;;;;;;;9.57;4.20;;;;;;;0.39;56.26;103526.97;4991497;28;20034;-44
2024/01/09 01:05:13;;;;;;;10.85;4.68;;;;;;;0.54;56.34;103524.97;4990045;28;20030;-47
2024/01/09 01:07:38;;;;;;;9.35;4.45;;;;;;;0.36;56.29;103536.94;4991364;28;20081;-45
2024/01/09 01:10:04;;;;;;;10.57;4.30;;;;;;;0.48;56.10;103538.13;4988543;28;20034;-49
2024/01/09 01:12:30;;;;;;;8.15;3.95;;;;;;;-0.18;58.27;103537.56;4990891;28;20058;-47
2024/01/09 01:14:56;;;;;;;10.27;4.60;;;;;;;0.41;57.02;103535.72;4990136;28;20452;-48
2024/01/09 01:17:21;;;;;;;11.40;4.68;;;;;;;0.57;56.34;103541.56;4990838;28;20030;-44
2024/01/09 01:19:46;;;;;;;9.02;4.03;;;;;;;0.11;57.38;103537.88;4990365;28;20031;-45
2024/01/09 01:22:11;;;;;;;9.52;4.07;;;;;;;0.07;57.54;103543.44;4990336;28;20033;-45
2024/01/09 01:24:37;;;;;;;11.40;4.50;;;;;;;0.62;55.73;103535.19;4990752;28;20069;-43
2024/01/09 01:27:02;;;;;;;8.90;4.22;;;;;;;0.22;57.02;103539.84;4990374;28;20032;-48
2024/01/09 01:29:28;;;;;;;8.77;4.45;;;;;;;0.53;56.60;103536.00;4990790;28;20497;-46
2024/01/09 01:31:54;;;;;;;11.10;4.78;;;;;;;0.59;55.41;103545.19;4989658;28;20057;-45
2024/01/09 01:34:19;;;;;;;9.05;4.25;;;;;;;0.55;55.92;103539.63;4990078;28;20714;-45
2024/01/09 01:36:44;;;;;;;10.95;4.65;;;;;;;0.19;57.15;103543.00;4989520;28;20046;-48
2024/01/09 01:39:10;;;;;;;10.50;4.72;;;;;;;0.52;55.97;103539.31;4990070;28;20117;-47
2024/01/09 01:41:35;;;;;;;9.98;4.22;;;;;;;0.14;56.90;103533.94;4990628;28;20554;-45
2024/01/09 01:44:01;;;;;;;9.50;4.32;;;;;;;0.39;56.18;103540.69;4993430;28;20026;-47
2024/01/09 01:46:29;;;;;;;9.50;4.25;;;;;;;0.39;55.51;103544.94;4995105;28;20377;-46
2024/01/09 01:48:54;;;;;;;10.43;4.50;;;;;;;0.38;55.72;103531.19;4995097;28;20033;-44
2024/01/09 01:51:20;;;;;;;8.68;4.05;;;;;;;0.27;55.77;103538.59;4994637;28;20034;-45
2024/01/09 01:53:45;;;;;;;9.45;3.92;;;;;;;0.07;56.57;103531.53;5007489;23;20046;-45
2024/01/09 01:56:11;;;;;;;9.10;3.63;;;;;;;-0.04;55.97;103534.72;4993092;28;20030;-46
2024/01/09 01:58:36;;;;;;;10.45;4.40;;;;;;;0.20;55.96;103536.19;4993623;28;20044;-45
2024/01/09 02:01:04;;;;;;;8.60;3.75;;;;;;;0.00;56.80;103532.59;4993065;28;20160;-44
2024/01/09 02:03:29;;;;;;;11.52;4.30;;;;;;;0.62;54.04;103531.72;4993257;28;20096;-45
2024/01/09 02:05:56;;;;;;;9.45;3.88;;;;;;;0.30;55.32;103536.34;4993030;28;20515;-45
2024/01/09 02:08:24;;;;;;;9.48;4.28;;;;;;;-0.03;56.00;103542.56;4993362;28;20381;-44
2024/01/09 02:10:50;;;;;;;9.88;4.53;;;;;;;0.05;56.30;103533.06;4993405;28;20041;-48
2024/01/09 02:13:16;;;;;;;8.40;3.83;;;;;;;-0.05;55.96;103530.34;4993018;28;20038;-44
2024/01/09 02:15:41;;;;;;;8.90;3.83;;;;;;;0.20;55.58;103531.06;4993306;28;20493;-47
2024/01/09 02:18:07;;;;;;;10.50;4.30;;;;;;;0.20;55.34;103538.75;4992898;28;20044;-43
2024/01/09 02:20:32;;;;;;;9.63;4.03;;;;;;;0.04;55.50;103523.56;4993255;28;20046;-47
2024/01/09 02:22:58;;;;;;;10.50;4.07;;;;;;;0.38;54.29;103518.34;4992513;28;20026;-46
2024/01/09 02:25:24;;;;;;;8.27;3.83;;;;;;;0.37;54.59;103523.34;4991162;28;20037;-47
2024/01/09 02:27:58;;;;;;;8.13;3.80;;;;;;;0.30;54.70;103529.56;4992928;28;20044;-48
2024/01/09 02:30:24;;;;;;;10.27;4.22;;;;;;;0.58;54.37;103520.28;4992889;28;20404;-45
2024/01/09 02:32:51;;;;;;;7.45;3.63;;;;;;;0.49;54.23;103515.94;4992947;28;20400;-46
2024/01/09 02:35:16;;;;;;;7.40;3.70;;;;;;;0.39;54.53;103522.75;4992575;28;20481;-46
2024/01/09 02:37:42;;;;;;;7.57;3.80;;;;;;;0.44;54.38;103518.03;4993155;28;20058;-49
2024/01/09 02:40:08;;;;;;;10.50;4.25;;;;;;;0.32;55.33;103517.75;4993054;28;20489;-44
2024/01/09 02:42:36;;;;;;;7.82;3.90;;;;;;;0.18;55.16;103520.69;4993935;28;20046;-44
2024/01/09 02:45:02;;;;;;;9.77;4.10;;;;;;;-0.04;55.89;103519.31;4992292;28;20088;-43
2024/01/09 02:47:28;;;;;;;9.02;3.75;;;;;;;0.31;55.27;103513.38;4993175;28;20079;-43
2024/01/09 02:49:53;;;;;;;8.60;3.78;;;;;;;0.18;56.15;103518.13;4992409;28;20061;-44
2024/01/09 02:52:18;;;;;;;8.57;3.85;;;;;;;0.40;54.86;103511.72;4994063;28;20058;-47
2024/01/09 02:54:45;;;;;;;9.50;4.13;;;;;;;0.58;54.65;103514.22;4992803;28;20125;-44
2024/01/09 02:57:11;;;;;;;8.88;4.15;;;;;;;0.18;55.87;103518.13;4992677;28;20045;-48
2024/01/09 02:59:38;;;;;;;9.10;4.10;;;;;;;0.28;55.58;103514.75;4993320;28;20038;-46
2024/01/09 03:02:04;;;;;;;9.32;4.13;;;;;;;0.37;54.58;103508.84;4992698;28;20022;-45
2024/01/09 03:04:29;;;;;;;8.98;4.20;;;;;;;0.35;55.08;103510.38;4992191;28;20112;-44
2024/01/09 03:06:54;;;;;;;8.60;4.13;;;;;;;0.40;54.68;103503.13;4992362;28;20443;-46
2024/01/09 03:09:20;;;;;;;8.70;4.15;;;;;;;0.12;55.60;103514.06;4992208;28;20489;-47
2024/01/09 03:11:45;;;;;;;8.70;4.05;;;;;;;0.31;56.07;103503.13;4992554;28;20026;-45
2024/01/09 03:14:11;;;;;;;8.32;4.10;;;;;;;-0.12;56.85;103504.84;4991312;28;20038;-48
2024/01/09 03:16:36;;;;;;;9.18;4.53;;;;;;;0.12;56.37;103508.91;4992164;28;20034;-49
2024/01/09 03:19:02;;;;;;;8.40;3.85;;;;;;;0.18;55.78;103497.59;4991739;28;20041;-42
2024/01/09 03:21:27;;;;;;;9.55;4.47;;;;;;;-0.02;56.58;103494.75;4992622;28;20399;-44
2024/01/09 03:23:52;;;;;;;8.95;4.10;;;;;;;0.36;56.00;103501.03;4991727;28;20485;-44
2024/01/09 03:26:18;;;;;;;9.43;4.30;;;;;;;0.10;56.46;103497.59;4991659;28;20088;-46
2024/01/09 03:28:43;;;;;;;9.95;4.10;;;;;;;0.26;56.33;103500.88;4992145;28;20513;-46
2024/01/09 03:31:20;;;;;;;10.10;4.25;;;;;;;0.16;56.11;103493.97;4991696;28;20030;-45
2024/01/09 03:33:46;;;;;;;10.23;4.47;;;;;;;0.25;56.09;103499.97;4991901;28;20501;-45
2024/01/09 03:36:12;;;;;;;8.38;4.07;;;;;;;-0.01;57.11;103497.47;4989621;28;20056;-46
2024/01/09 03:38:38;;;;;;;10.68;4.10;;;;;;;0.06;56.79;103495.50;4992040;28;20038;-46
2024/01/09 03:41:04;;;;;;;9.73;4.45;;;;;;;-0.05;57.44;103497.00;4991534;28;20056;-46
2024/01/09 03:43:29;;;;;;;8.75;4.28;;;;;;;-0.07;57.75;103501.09;4992136;28;20511;-44
2024/01/09 03:45:56;;;;;;;11.45;4.47;;;;;;;-0.14;57.85;103497.03;4991694;28;20038;-44
2024/01/09 03:48:22;;;;;;;11.40;4.57;;;;;;;0.03;57.60;103495.19;4991741;28;20428;-45
2024/01/09 03:50:47;;;;;;;9.52;4.15;;;;;;;-0.23;58.22;103495.19;4992797;28;20034;-44
2024/01/09 03:53:13;;;;;;;9.13;4.50;;;;;;;-0.02;56.92;103494.75;4992714;28;20038;-46
2024/01/09 03:55:38;;;;;;;10.38;4.30;;;;;;;0.27;56.08;103492.44;4993620;28;20038;-48
2024/01/09 03:58:03;;;;;;;10.02;4.30;;;;;;;0.20;56.69;103495.16;4993777;28;20466;-46
2024/01/09 04:00:29;;;;;;;10.10;4.55;;;;;;;-0.21;57.03;103489.47;4993905;28;20034;-47
2024/01/09 04:02:54;;;;;;;9.55;4.40;;;;;;;0.22;57.08;103491.09;4993180;28;20043;-44
2024/01/09 04:05:19;;;;;;;11.18;4.70;;;;;;;-0.24;57.46;103498.50;4994917;28;20035;-45
2024/01/09 04:07:45;;;;;;;10.05;4.53;;;;;;;-0.02;57.67;103492.19;4993631;28;20034;-47
2024/01/09 04:10:10;;;;;;;9.40;4.25;;;;;;;-0.08;57.38;103489.94;4992266;28;20102;-46
2024/01/09 04:12:35;;;;;;;9.45;4.03;;;;;;;-0.17;57.50;103495.81;4991859;28;20489;-44
2024/01/09 04:15:01;;;;;;;10.68;4.22;;;;;;;-0.25;57.89;103489.94;4990382;28;20041;-45
2024/01/09 04:17:27;;;;;;;9.90;4.07;;;;;;;-0.11;57.34;103483.59;4990988;28;20539;-47
2024/01/09 04:19:54;;;;;;;11.00;4.45;;;;;;;-0.05;56.62;103492.78;4991185;28;20722;-45
2024/01/09 04:22:19;;;;;;;8.93;4.10;;;;;;;-0.17;57.73;103483.88;4990982;28;20031;-44
2024/01/09 04:24:44;;;;;;;9.82;4.50;;;;;;;-0.20;58.37;103491.28;4991115;28;20049;-47
2024/01/09 04:27:10;;;;;;;10.95;4.55;;;;;;;0.19;55.37;103477.94;4990440;28;20117;-45
2024/01/09 04:29:35;;;;;;;11.32;4.35;;;;;;;-0.17;56.77;103483.88;4990839;28;20421;-47
2024/01/09 04:32:00;;;;;;;8.52;4.50;;;;;;;0.14;56.25;103485.22;4990562;28;20035;-43
2024/01/09 04:34:26;;;;;;;10.32;4.30;;;;;;;-0.16;56.84;103489.91;4990581;28;20034;-44
2024/01/09 04:36:51;;;;;;;10.82;4.30;;;;;;;-0.14;56.74;103481.63;4991575;28;20652;-45
2024/01/09 04:39:16;;;;;;;8.65;4.05;;;;;;;-0.11;56.41;103492.19;4991519;28;20113;-45
2024/01/09 04:41:41;;;;;;;10.00;4.28;;;;;;;-0.44;57.53;103492.34;4990871;28;20038;-44
2024/01/09 04:44:07;;;;;;;9.82;4.00;;;;;;;-0.11;56.67;103481.91;4988407;28;20034;-45
2024/01/09 04:46:32;;;;;;;9.95;4.25;;;;;;;0.07;56.83;103495.63;4990294;28;20121;-48
2024/01/09 04:48:58;;;;;;;10.00;4.22;;;;;;;0.21;56.12;103482.47;4990000;28;20401;-44
2024/01/09 04:51:23;;;;;;;11.30;4.82;;;;;;;-0.38;57.17;103497.19;4990580;28;20041;-46
2024/01/09 04:53:48;;;;;;;8.90;4.22;;;;;;;-0.32;57.68;103492.66;4990355;28;20441;-45
2024/01/09 04:56:14;;;;;;;9.45;4.40;;;;;;;0.02;55.88;103484.03;4989953;28;20126;-43
2024/01/09 04:58:39;;;;;;;10.20;4.40;;;;;;;-0.26;56.58;103482.09;4990683;28;20026;-43
2024/01/09 05:01:09;;;;;;;11.25;4.40;;;;;;;-0.16;56.94;103488.28;4990179;28;20033;-45
2024/01/09 05:03:35;;;;;;;10.63;4.60;;;;;;;-0.07;56.16;103483.16;4990787;28;20037;-47
2024/01/09 05:06:00;;;;;;;9.73;3.97;;;;;;;-0.35;57.41;103476.97;4990170;28;20422;-46
2024/01/09 05:08:26;;;;;;;9.68;4.05;;;;;;;-0.37;57.45;103487.84;4991338;28;20149;-45
2024/01/09 05:10:51;;;;;;;8.82;3.85;;;;;;;-0.19;56.54;103484.50;4990848;28;20030;-45
2024/01/09 05:13:16;;;;;;;9.32;3.88;;;;;;;-0.28;56.31;103483.59;4990007;28;20173;-45
2024/01/09 05:15:42;;;;;;;7.40;3.78;;;;;;;-0.42;56.92;103480.56;4990672;28;20034;-43
2024/01/09 05:18:07;;;;;;;8.23;3.75;;;;;;;-0.37;57.58;103483.63;4989758;28;20113;-44
2024/01/09 05:20:32;;;;;;;10.90;4.70;;;;;;;-0.66;58.17;103478.13;4990746;28;20121;-44
2024/01/09 05:22:58;;;;;;;9.98;4.50;;;;;;;-0.25;56.35;103477.13;4990647;28;20030;-46
2024/01/09 05:25:23;;;;;;;11.45;4.35;;;;;;;-0.05;56.26;103481.63;4990803;28;20042;-44
2024/01/09 05:27:48;;;;;;;9.25;4.00;;;;;;;-0.19;56.84;103482.84;4990030;28;20027;-43
2024/01/09 05:30:14;;;;;;;7.88;3.85;;;;;;;-0.29;56.73;103497.16;4989708;28;20116;-45
2024/01/09 05:32:40;;;;;;;9.27;4.00;;;;;;;-0.38;57.03;103497.19;4990202;28;20659;-44
2024/01/09 05:35:07;;;;;;;9.27;4.25;;;;;;;-0.43;57.22;103485.56;4989301;28;20056;-43
2024/01/09 05:37:33;;;;;;;9.40;4.00;;;;;;;-0.18;56.47;103494.88;4988684;28;20038;-45
2024/01/09 05:39:58;;;;;;;10.77;4.63;;;;;;;-0.04;56.04;103488.56;4989458;28;20462;-46
2024/01/09 05:42:24;;;;;;;8.30;4.13;;;;;;;-0.61;56.88;103481.19;4989961;28;20061;-45
2024/01/09 05:44:49;;;;;;;11.23;4.60;;;;;;;-0.45;57.13;103493.09;4989608;28;20030;-44
2024/01/09 05:47:14;;;;;;;8.68;3.92;;;;;;;-0.45;57.00;103489.63;4989457;28;20045;-44
2024/01/09 05:49:40;;;;;;;8.38;4.03;;;;;;;-0.31;56.00;103494.47;4988520;28;20030;-45
2024/01/09 05:52:05;;;;;;;8.48;4.10;;;;;;;-0.34;56.62;103491.59;4989797;28;20038;-47
2024/01/09 05:54:31;;;;;;;10.32;4.60;;;;;;;-0.54;57.29;103496.38;4989581;28;20117;-44
2024/01/09 05:56:59;;;;;;;10.50;3.72;;;;;;;-0.10;56.33;103494.00;4989369;28;20075;-48
2024/01/09 05:59:24;;;;;;;9.30;4.25;;;;;;;-0.27;55.32;103494.00;4989510;28;20357;-43
2024/01/09 06:01:50;;;;;;;9.10;3.70;;;;;;;-0.67;56.67;103494.25;4989989;28;20076;-44
2024/01/09 06:04:15;;;;;;;9.07;3.88;;;;;;;-0.87;57.39;103493.94;4988983;28;20570;-47
2024/01/09 06:06:40;;;;;;;9.35;3.90;;;;;;;-0.62;57.10;103499.88;4989659;28;20117;-45
2024/01/09 06:09:06;;;;;;;10.77;4.18;;;;;;;-0.23;56.03;103493.53;4988888;28;20112;-46
2024/01/09 06:11:31;;;;;;;8.65;3.78;;;;;;;-0.29;55.47;103504.84;4989647;28;20041;-44
2024/01/09 06:13:56;;;;;;;9.48;4.00;;;;;;;-0.17;55.59;103500.94;4988771;28;20054;-43
2024/01/09 06:16:22;;;;;;;11.82;4.20;;;;;;;-0.53;55.12;103504.25;4989993;28;20034;-45
2024/01/09 06:18:48;;;;;;;8.38;3.63;;;;;;;-0.22;55.31;103502.13;4991293;28;20126;-46
2024/01/09 06:21:13;;;;;;;9.38;3.85;;;;;;;-0.69;55.89;103506.03;4990499;28;20125;-42
2024/01/09 06:23:39;;;;;;;8.57;3.70;;;;;;;-0.67;55.96;103507.06;4990289;28;20112;-45
2024/01/09 06:26:04;;;;;;;11.27;4.07;;;;;;;-0.62;56.02;103507.56;4988727;28;20483;-46
2024/01/09 06:28:29;;;;;;;7.80;3.65;;;;;;;-0.80;55.77;103514.31;4989522;28;20038;-44
2024/01/09 06:30:55;;;;;;;8.30;4.07;;;;;;;0.04;54.05;103508.16;4992258;28;20592;-44
2024/01/09 06:33:20;;;;;;;8.05;4.13;;;;;;;-0.17;54.72;103512.09;4991653;28;20048;-45
2024/01/09 06:35:45;;;;;;;8.88;4.10;;;;;;;-0.44;54.46;103512.84;4993175;28;20028;-46
2024/01/09 06:38:11;;;;;;;7.65;3.83;;;;;;;-0.48;55.60;103515.84;4993335;28;20026;-44
2024/01/09 06:40:36;;;;;;;9.68;4.10;;;;;;;0.01;53.48;103520.69;4994390;28;20468;-44
2024/01/09 06:43:01;;;;;;;10.55;4.07;;;;;;;-0.49;55.09;103520.84;4993233;28;20400;-46
2024/01/09 06:45:27;;;;;;;10.27;3.97;;;;;;;-0.35;54.63;103528.22;4991346;28;20451;-44
2024/01/09 06:47:52;;;;;;;8.43;3.60;;;;;;;-0.51;54.49;103530.03;4994368;28;20533;-44
2024/01/09 06:50:18;;;;;;;8.63;4.10;;;;;;;-0.46;54.44;103524.59;4992249;28;20180;-44
2024/01/09 06:52:43;;;;;;;8.93;4.03;;;;;;;-0.57;53.69;103522.63;4993312;28;20058;-44
2024/01/09 06:55:08;;;;;;;11.07;4.45;;;;;;;-0.80;55.20;103521.06;4991744;28;20046;-44
2024/01/09 06:57:34;;;;;;;8.95;4.20;;;;;;;-0.47;53.76;103516.75;4992787;28;20041;-47
2024/01/09 07:00:00;;;;;;;11.75;4.22;;;;;;;-0.66;54.37;103523.34;4990543;28;20034;-43
2024/01/09 07:02:25;;;;;;;7.80;3.80;;;;;;;-0.74;54.14;103529.38;4992360;28;20057;-43
2024/01/09 07:04:50;;;;;;;8.70;3.90;;;;;;;-0.51;53.98;103533.50;4991832;28;20077;-43
2024/01/09 07:07:15;;;;;;;10.27;4.28;;;;;;;-0.40;53.07;103534.56;4991849;28;20030;-47
2024/01/09 07:09:41;;;;;;;9.43;3.92;;;;;;;-0.62;53.74;103525.50;4992151;28;20130;-45
2024/01/09 07:12:09;;;;;;;10.10;4.22;;;;;;;-0.44;53.16;103528.22;4992069;28;20033;-47
2024/01/09 07:14:37;;;;;;;9.43;4.15;;;;;;;-0.54;53.61;103535.72;4991909;28;20070;-45
2024/01/09 07:17:07;;;;;;;8.80;3.95;;;;;;;-0.83;53.84;103526.78;4991534;28;20058;-46
2024/01/09 07:19:33;;;;;;;8.15;3.72;;;;;;;-1.00;54.47;103540.44;4992312;28;20567;-45
2024/01/09 07:21:58;;;;;;;9.45;4.03;;;;;;;-0.88;54.43;103533.09;4991784;28;20035;-44
2024/01/09 07:24:24;;;;;;;9.43;4.15;;;;;;;-0.92;54.83;103551.47;4991694;28;20038;-42
2024/01/09 07:26:50;;;;;;;11.93;4.20;;;;;;;-0.94;54.44;103545.28;4992546;28;20030;-47
2024/01/09 07:29:17;;;;;;;8.43;3.65;;;;;;;-0.92;54.44;103552.38;4993697;28;20066;-43
2024/01/09 07:31:43;;;;;;;9.30;3.90;;;;;;;-0.99;53.44;103526.00;4993648;28;20047;-49
2024/01/09 07:34:09;;;;;;;10.93;4.80;;;;;;;-0.68;53.46;103555.59;4991911;28;20034;-47
2024/01/09 07:36:34;;;;;;;9.48;3.75;;;;;;;-0.94;53.60;103559.00;4991741;28;20183;-46
2024/01/09 07:38:59;;;;;;;11.43;4.30;;;;;;;-0.79;53.27;103561.31;4991524;28;20030;-46
2024/01/09 07:41:25;;;;;;;8.38;3.83;;;;;;;-1.07;53.38;103553.34;4991662;28;20038;-46
2024/01/09 07:43:50;;;;;;;10.18;4.35;;;;;;;-0.50;52.49;103566.06;4992633;28;20085;-45
2024/01/09 07:46:17;;;;;;;9.77;4.13;;;;;;;-0.49;52.30;103569.53;4992113;28;20034;-44
2024/01/09 07:48:43;;;;;;;9.50;4.25;;;;;;;-0.47;51.78;103573.13;4990424;28;20034;-44
2024/01/09 07:51:08;;;;;;;9.70;3.90;;;;;;;-0.58;52.38;103582.31;4990838;28;20030;-43
2024/01/09 07:53:33;;;;;;;11.50;4.70;;;;;;;-0.58;52.26;103591.66;5015423;22;20037;-44
2024/01/09 07:55:59;;;;;;;9.68;3.75;;;;;;;-0.88;52.74;103587.78;4995196;28;20460;-46
2024/01/09 07:58:24;;;;;;;10.00;4.05;;;;;;;-0.61;52.04;103587.09;4996476;28;20034;-50
2024/01/09 08:00:49;;;;;;;12.45;4.50;;;;;;;-0.51;51.67;103595.00;4996124;28;20035;-45
2024/01/09 08:03:16;;;;;;;9.80;4.43;;;;;;;-0.61;51.52;103589.66;4992101;28;20038;-47
2024/01/09 08:05:41;;;;;;;9.13;3.95;;;;;;;-0.67;52.40;103598.41;4993010;28;20349;-45
2024/01/09 08:08:06;;;;;;;7.85;3.88;;;;;;;-0.52;51.17;103595.72;4992449;28;20038;-47
2024/01/09 08:10:32;;;;;;;8.32;4.10;;;;;;;-0.90;52.16;103596.03;4992781;28;20064;-46
2024/01/09 08:12:58;;;;;;;8.65;4.00;;;;;;;-0.58;51.31;103607.00;4991842;28;20034;-47
2024/01/09 08:15:24;;;;;;;8.35;3.65;;;;;;;-0.42;51.18;103610.38;4990028;28;20037;-43
2024/01/09 08:17:49;;;;;;;9.43;3.58;;;;;;;-0.85;51.69;103606.00;4992241;28;20026;-52
2024/01/09 08:20:14;;;;;;;9.07;3.90;;;;;;;-0.56;51.12;103608.09;4991204;28;20038;-44
2024/01/09 08:22:40;;;;;;;11.23;4.22;;;;;;;-0.26;50.57;103613.75;4992023;28;20038;-47
2024/01/09 08:25:05;;;;;;;10.38;4.22;;;;;;;-0.25;50.12;103617.22;4990743;28;20472;-45
2024/01/09 08:27:31;;;;;;;9.10;4.00;;;;;;;-0.66;51.28;103607.88;4990141;28;20129;-46
2024/01/09 08:29:56;;;;;;;9.52;4.13;;;;;;;-0.30;50.35;103606.47;4989609;28;20061;-44
2024/01/09 08:32:22;;;;;;;10.15;4.07;;;;;;;-0.13;50.00;103610.75;4990855;28;20045;-47
2024/01/09 08:34:48;;;;;;;9.48;3.83;;;;;;;-0.10;49.88;103604.25;4991397;28;20034;-48
2024/01/09 08:37:13;;;;;;;8.65;3.85;;;;;;;-0.19;49.62;103612.69;4991624;28;20031;-44
2024/01/09 08:39:38;;;;;;;9.30;3.83;;;;;;;-0.38;48.91;103609.03;4991511;28;20022;-48
2024/01/09 08:42:04;;;;;;;8.50;3.72;;;;;;;-0.15;49.35;103614.81;4991141;28;20088;-44
2024/01/09 08:44:29;;;;;;;9.25;4.07;;;;;;;-0.21;49.08;103611.63;4991529;28;20084;-44
2024/01/09 08:46:55;;;;;;;8.68;3.70;;;;;;;-0.30;48.83;103606.47;4992348;28;20038;-48
2024/01/09 08:49:20;;;;;;;8.40;3.92;;;;;;;0.48;47.19;103602.28;4991607;28;20069;-46
2024/01/09 08:51:45;;;;;;;8.52;3.90;;;;;;;-0.02;47.66;103617.84;4991738;28;20085;-45
2024/01/09 08:54:11;;;;;;;8.85;3.65;;;;;;;0.39;47.28;103611.66;4991502;28;20042;-46
2024/01/09 08:56:36;;;;;;;7.72;3.78;;;;;;;0.32;47.05;103614.38;4992591;28;20089;-45
2024/01/09 08:59:01;;;;;;;11.38;4.00;;;;;;;0.42;47.17;103604.25;4992595;28;20034;-44
2024/01/09 09:01:27;;;;;;;8.48;3.63;;;;;;;0.08;47.52;103607.72;4992354;28;20046;-47
2024/01/09 09:03:52;;;;;;;6.82;3.70;;;;;;;0.25;46.55;103593.97;4992566;28;20058;-46
2024/01/09 09:06:18;;;;;;;10.70;3.85;;;;;;;0.00;46.80;103601.84;4991364;28;20031;-47
2024/01/09 09:08:44;;;;;;;8.88;3.88;;;;;;;0.06;47.19;103601.56;4991908;28;20034;-45
2024/01/09 09:11:14;;;;;;;7.72;3.58;;;;;;;0.54;46.55;103595.19;4990208;28;20031;-44
2024/01/09 09:13:42;;;;;;;8.85;3.75;;;;;;;0.34;46.20;103603.50;4991495;28;20166;-43
2024/01/09 09:16:07;;;;;;;7.82;3.78;;;;;;;0.27;45.34;103597.63;4990980;28;20026;-43
2024/01/09 09:18:33;;;;;;;8.40;3.88;;;;;;;0.26;45.97;103608.63;4992337;28;20096;-43
2024/01/09 09:21:00;;;;;;;9.65;3.70;;;;;;;-0.09;45.59;103597.47;4991108;28;20409;-43
2024/01/09 09:23:25;;;;;;;8.13;3.80;;;;;;;0.30;45.53;103596.28;4990793;28;20648;-47
2024/01/09 09:25:50;;;;;;;8.48;3.33;;;;;;;0.11;45.52;103596.88;4990367;28;20034;-44
2024/01/09 09:28:16;;;;;;;8.25;3.38;;;;;;;0.20;45.41;103593.53;4990563;28;20045;-48
2024/01/09 09:30:41;;;;;;;8.38;3.08;;;;;;;0.00;45.52;103590.69;4991033;28;20030;-45
2024/01/09 09:33:08;;;;;;;6.97;3.33;;;;;;;0.62;45.04;103583.97;4990853;28;20062;-44
2024/01/09 09:35:35;;;;;;;10.02;3.63;;;;;;;0.48;44.85;103583.41;4991093;28;20382;-45
2024/01/09 09:38:00;;;;;;;7.95;3.40;;;;;;;0.40;44.16;103582.66;4990601;28;20041;-49
2024/01/09 09:40:26;;;;;;;8.25;3.47;;;;;;;0.49;45.01;103583.53;4991340;28;20038;-46
2024/01/09 09:42:57;;;;;;;8.23;3.33;;;;;;;0.47;45.02;103591.88;4991301;28;20097;-44
2024/01/09 09:45:25;;;;;;;8.40;3.35;;;;;;;0.62;44.10;103588.19;4991074;28;20026;-44
2024/01/09 09:47:56;;;;;;;8.10;3.60;;;;;;;0.45;44.38;103586.56;4991968;28;20038;-44
2024/01/09 09:50:22;;;;;;;7.65;3.58;;;;;;;0.45;44.01;103594.28;4992451;28;20033;-45
2024/01/09 09:52:48;;;;;;;10.10;3.90;;;;;;;0.55;44.20;103593.53;4992256;28;20049;-44
2024/01/09 09:55:14;;;;;;;7.20;3.08;;;;;;;0.36;44.51;103591.75;4990763;28;20042;-43
2024/01/09 09:57:40;;;;;;;7.38;3.35;;;;;;;0.48;43.93;103589.47;4991550;28;20034;-46
2024/01/09 10:00:09;;;;;;;9.90;3.90;;;;;;;0.21;44.74;103592.78;4990278;28;20505;-49
2024/01/09 10:02:43;;;;;;;8.48;3.60;;;;;;;0.49;43.78;103583.53;4990931;28;20038;-44
2024/01/09 10:05:13;;;;;;;7.57;3.10;;;;;;;0.43;44.05;103584.63;4993156;28;20030;-43
2024/01/09 10:07:43;;;;;;;7.93;3.80;;;;;;;0.23;43.58;103593.88;4994472;28;20523;-43
2024/01/09 10:10:12;;;;;;;7.55;3.67;;;;;;;0.60;43.27;103579.47;4994049;28;20034;-46
2024/01/09 10:12:39;;;;;;;6.85;3.55;;;;;;;0.19;43.08;103601.09;4994743;28;20026;-44
2024/01/09 10:15:09;;;;;;;8.20;3.53;;;;;;;0.76;42.92;103593.00;4993949;28;20120;-45
2024/01/09 10:17:36;;;;;;;9.27;3.63;;;;;;;0.46;41.83;103593.53;4994450;28;20030;-44
2024/01/09 10:20:06;;;;;;;6.43;3.15;;;;;;;0.65;42.14;103592.00;4993779;28;20046;-45
2024/01/09 10:22:35;;;;;;;7.20;3.10;;;;;;;0.92;42.09;103578.28;4994785;28;20030;-45
2024/01/09 10:25:03;;;;;;;7.63;3.45;;;;;;;0.96;41.65;103579.50;4993662;28;20034;-47
2024/01/09 10:27:28;;;;;;;7.32;3.35;;;;;;;1.07;41.85;103584.00;4994912;28;20034;-44
2024/01/09 10:29:54;;;;;;;8.43;3.22;;;;;;;1.40;41.57;103591.41;4995308;28;20066;-45
2024/01/09 10:32:19;;;;;;;6.68;3.13;;;;;;;0.74;42.12;103580.00;4994846;28;20036;-44
2024/01/09 10:34:45;;;;;;;6.25;2.88;;;;;;;0.56;41.74;103579.91;4994729;28;20046;-45
2024/01/09 10:37:12;;;;;;;8.55;3.47;;;;;;;0.92;41.16;103582.53;4996015;28;20057;-45
2024/01/09 10:39:38;;;;;;;5.68;2.90;;;;;;;1.11;40.37;103575.81;5000945;28;20132;-44
2024/01/09 10:42:06;;;;;;;7.90;3.30;;;;;;;1.48;40.01;103572.44;5001640;28;20030;-45
2024/01/09 10:44:31;;;;;;;9.27;3.30;;;;;;;1.30;40.34;103563.03;4998607;28;20054;-44
2024/01/09 10:46:59;;;;;;;6.47;3.13;;;;;;;1.01;40.54;103557.72;4994409;28;20026;-46
2024/01/09 10:49:25;;;;;;;8.50;3.35;;;;;;;1.12;40.17;103564.78;4994476;28;20034;-44
2024/01/09 10:51:52;;;;;;;6.32;2.80;;;;;;;1.09;39.42;103552.56;4994239;28;20492;-45
2024/01/09 10:54:19;;;;;;;7.43;3.00;;;;;;;0.93;40.02;103554.44;4992049;28;20039;-45
2024/01/09 10:56:46;;;;;;;7.68;2.92;;;;;;;1.35;39.45;103551.50;4994501;28;20034;-44
2024/01/09 10:59:14;;;;;;;7.70;3.25;;;;;;;1.53;39.02;103548.06;4994423;28;20030;-47
2024/01/09 11:01:40;;;;;;;7.00;3.15;;;;;;;1.65;39.09;103538.91;4995526;28;20034;-46
2024/01/09 11:04:07;;;;;;;6.70;2.97;;;;;;;1.29;38.46;103545.78;4994719;28;20050;-42
2024/01/09 11:06:35;;;;;;;6.40;2.88;;;;;;;1.48;39.13;103542.50;4994565;28;20465;-43
2024/01/09 11:09:04;;;;;;;6.72;3.08;;;;;;;1.70;37.54;103535.09;4992980;28;20035;-46
2024/01/09 11:11:33;;;;;;;7.00;3.20;;;;;;;2.04;37.28;103539.97;4992848;28;20528;-45
2024/01/09 11:14:06;;;;;;;7.32;3.17;;;;;;;1.64;37.78;103539.69;4992856;28;20041;-48
2024/01/09 11:16:37;;;;;;;7.40;3.05;;;;;;;1.66;37.71;103529.50;4992709;28;20030;-44
2024/01/09 11:19:04;;;;;;;7.10;3.20;;;;;;;1.98;37.80;103523.06;4992963;28;20057;-48
2024/01/09 11:21:30;;;;;;;8.15;2.90;;;;;;;1.88;37.51;103526.50;4993812;28;20425;-45